Time;durP1;ratioP1;P1;durP2;ratioP2;P2;SDS_P1;SDS_P2;PMS_P1;PMS_P2;Temp;Humidity;BMP_temperature;BMP_pressure;BME280_temperature;BME280_humidity;BME280_pressure;Samples;Min_cycle;Max_cycle;Signal;HPM_P1;HPM_P2
2022/01/14 00:01:35;;;;;;;34.07;15.40;;;;;;;2.27;100.00;102331.16;5005211;28;20389;-76
2022/01/14 00:04:02;;;;;;;32.10;14.90;;;;;;;2.25;100.00;102326.75;5001843;28;20228;-74
2022/01/14 00:06:30;;;;;;;35.67;15.17;;;;;;;2.25;100.00;102330.22;5005685;28;20215;-76
2022/01/14 00:09:04;;;;;;;35.93;15.03;;;;;;;2.26;100.00;102338.81;5003523;28;20555;-75
2022/01/14 00:11:32;;;;;;;29.30;14.03;;;;;;;2.25;100.00;102332.78;5004778;28;20295;-75
2022/01/14 00:14:08;;;;;;;27.50;13.47;;;;;;;2.25;100.00;102340.53;4998155;28;20225;-75
2022/01/14 00:16:35;;;;;;;33.37;14.40;;;;;;;2.24;100.00;102333.59;5004421;28;20208;-75
2022/01/14 00:19:03;;;;;;;28.33;13.70;;;;;;;2.25;100.00;102335.38;5000582;28;20196;-76
2022/01/14 00:21:33;;;;;;;28.40;13.57;;;;;;;2.22;100.00;102340.41;5004163;28;20205;-76
2022/01/14 00:24:07;;;;;;;30.60;14.70;;;;;;;2.23;100.00;102341.25;5002557;28;20559;-76
2022/01/14 00:32:08;;;;;;;32.63;14.20;;;;;;;2.23;100.00;102351.56;4985523;28;20206;-76
2022/01/14 00:34:34;;;;;;;35.20;14.70;;;;;;;2.22;100.00;102358.41;5004276;28;20691;-76
2022/01/14 00:37:02;;;;;;;32.40;15.07;;;;;;;2.23;100.00;102354.13;5004584;28;20210;-74
2022/01/14 00:39:29;;;;;;;31.23;14.70;;;;;;;2.21;100.00;102360.94;5003640;28;20200;-75
2022/01/14 00:41:56;;;;;;;30.30;14.20;;;;;;;2.19;100.00;102354.84;5000600;28;20204;-76
2022/01/14 00:44:23;;;;;;;32.77;16.03;;;;;;;2.17;100.00;102353.94;5004016;28;20280;-74
2022/01/14 00:46:50;;;;;;;33.93;15.30;;;;;;;2.17;100.00;102344.50;5000649;28;20204;-76
2022/01/14 00:49:18;;;;;;;30.63;14.47;;;;;;;2.17;100.00;102341.06;5003397;28;20201;-75
2022/01/14 00:51:45;;;;;;;30.43;15.00;;;;;;;2.18;100.00;102347.94;5001372;28;20227;-75
2022/01/14 00:54:13;;;;;;;27.77;13.37;;;;;;;2.18;100.00;102343.69;5001953;28;20201;-75
2022/01/14 00:56:48;;;;;;;31.00;13.93;;;;;;;2.19;100.00;102336.84;5000604;28;20324;-74
2022/01/14 00:59:16;;;;;;;31.60;14.77;;;;;;;2.18;100.00;102345.38;5001931;28;20295;-74
2022/01/14 01:01:44;;;;;;;29.90;14.00;;;;;;;2.19;100.00;102348.00;5001104;28;21377;-76
2022/01/14 01:04:12;;;;;;;30.30;14.07;;;;;;;2.19;100.00;102339.41;5003343;28;20209;-76
2022/01/14 01:06:38;;;;;;;31.73;14.20;;;;;;;2.19;100.00;102347.13;5002755;28;20209;-76
2022/01/14 01:09:10;;;;;;;28.50;14.03;;;;;;;2.20;100.00;102341.16;5000380;28;20212;-76
2022/01/14 01:11:42;;;;;;;29.10;13.47;;;;;;;2.20;100.00;102348.88;4988474;28;20638;-76
2022/01/14 01:14:12;;;;;;;26.57;13.03;;;;;;;2.19;100.00;102345.44;5000536;28;20220;-76
2022/01/14 01:16:39;;;;;;;27.97;13.83;;;;;;;2.20;100.00;102343.72;5002424;28;20215;-76
2022/01/14 01:19:06;;;;;;;31.43;13.77;;;;;;;2.21;100.00;102345.50;5003254;28;20205;-76
2022/01/14 01:21:32;;;;;;;27.90;13.20;;;;;;;2.21;100.00;102342.91;5004815;28;20219;-75
2022/01/14 01:23:59;;;;;;;31.10;14.60;;;;;;;2.21;100.00;102346.34;5002206;28;20803;-76
2022/01/14 01:26:30;;;;;;;26.30;13.13;;;;;;;2.20;100.00;102339.47;5003874;28;20208;-75
2022/01/14 01:29:09;;;;;;;32.93;15.23;;;;;;;2.21;100.00;102338.63;4999406;28;20208;-76
2022/01/14 01:31:36;;;;;;;30.60;14.40;;;;;;;2.20;100.00;102331.75;5002589;28;20709;-76
2022/01/14 01:34:03;;;;;;;30.80;14.23;;;;;;;2.21;100.00;102328.34;5003742;28;20228;-76
2022/01/14 01:36:30;;;;;;;31.07;15.17;;;;;;;2.20;100.00;102333.44;5000993;28;20264;-76
2022/01/14 01:38:57;;;;;;;29.70;14.50;;;;;;;2.21;100.00;102332.63;5002016;28;20278;-75
2022/01/14 01:41:24;;;;;;;33.63;14.63;;;;;;;2.21;100.00;102336.06;4998060;28;20224;-74
2022/01/14 01:43:53;;;;;;;30.33;14.13;;;;;;;2.21;100.00;102335.19;5003322;28;20212;-76
2022/01/14 01:46:23;;;;;;;31.17;15.20;;;;;;;2.23;100.00;102326.72;5003044;28;20204;-76
2022/01/14 01:48:50;;;;;;;27.37;14.43;;;;;;;2.23;100.00;102328.41;5003904;28;20305;-74
2022/01/14 01:51:17;;;;;;;32.73;15.97;;;;;;;2.22;100.00;102331.81;5000378;28;20209;-76
2022/01/14 01:53:43;;;;;;;31.33;16.17;;;;;;;2.20;100.00;102326.59;5004250;28;20271;-76
2022/01/14 01:56:10;;;;;;;31.60;16.03;;;;;;;2.19;100.00;102321.41;5002618;28;20219;-74
2022/01/14 01:58:36;;;;;;;32.30;15.93;;;;;;;2.21;100.00;102314.59;5002860;28;20197;-76
2022/01/14 02:01:04;;;;;;;36.93;16.93;;;;;;;2.20;100.00;102312.84;5002153;28;20212;-76
2022/01/14 02:03:32;;;;;;;31.97;16.00;;;;;;;2.20;100.00;102316.31;5003627;28;20228;-76
2022/01/14 02:05:59;;;;;;;35.13;16.40;;;;;;;2.19;100.00;102311.09;5002706;28;20201;-76
2022/01/14 02:08:25;;;;;;;32.83;15.70;;;;;;;2.19;100.00;102306.81;4999031;28;20581;-76
2022/01/14 02:10:51;;;;;;;35.63;16.10;;;;;;;2.18;100.00;102299.03;5003320;28;20208;-75
2022/01/14 02:13:18;;;;;;;33.63;16.37;;;;;;;2.17;100.00;102298.19;5000602;28;20224;-76
2022/01/14 02:15:50;;;;;;;32.10;15.43;;;;;;;2.17;100.00;102293.03;5001582;28;20211;-76
2022/01/14 02:18:31;;;;;;;36.97;15.93;;;;;;;2.16;100.00;102295.56;4999648;28;20263;-76
2022/01/14 02:23:47;;;;;;;34.97;15.63;;;;;;;2.12;100.00;102283.41;5002247;28;21334;-76
2022/01/14 02:26:17;;;;;;;36.40;16.37;;;;;;;2.12;100.00;102285.97;5006361;28;20197;-74
2022/01/14 02:28:43;;;;;;;38.27;15.17;;;;;;;2.08;100.00;102290.16;5003277;28;20208;-76
2022/01/14 02:31:10;;;;;;;31.03;14.67;;;;;;;2.08;100.00;102287.56;5007686;28;20574;-76
2022/01/14 02:33:36;;;;;;;37.33;16.07;;;;;;;2.03;100.00;102278.81;5004381;28;20228;-74
2022/01/14 02:36:05;;;;;;;38.93;16.50;;;;;;;2.00;100.00;102277.00;5005502;28;20204;-76
2022/01/14 02:38:31;;;;;;;33.67;15.70;;;;;;;2.00;100.00;102270.97;5004049;28;20208;-76
2022/01/14 02:40:58;;;;;;;36.47;15.77;;;;;;;1.99;100.00;102272.69;5004398;28;20279;-75
2022/01/14 02:43:26;;;;;;;36.90;16.13;;;;;;;1.99;100.00;102276.97;5002980;28;20278;-75
2022/01/14 02:45:56;;;;;;;38.23;16.87;;;;;;;1.93;100.00;102264.72;5006080;28;20200;-75
2022/01/14 02:48:25;;;;;;;41.70;18.07;;;;;;;1.93;100.00;102262.16;5006936;28;20204;-76
2022/01/14 02:50:58;;;;;;;34.23;15.83;;;;;;;1.94;100.00;102255.34;5005066;28;20196;-75
2022/01/14 02:53:30;;;;;;;41.70;17.80;;;;;;;1.92;100.00;102268.16;5007152;28;20571;-76
2022/01/14 02:56:00;;;;;;;35.77;16.93;;;;;;;1.91;100.00;102270.66;5006332;28;20617;-76
2022/01/14 02:58:29;;;;;;;40.20;17.80;;;;;;;1.88;100.00;102262.00;5005261;28;20201;-76
2022/01/14 03:00:56;;;;;;;38.57;16.90;;;;;;;1.86;100.00;102261.06;5004750;28;20212;-75
2022/01/14 03:03:24;;;;;;;40.97;17.87;;;;;;;1.87;100.00;102256.81;5007005;28;20255;-76
2022/01/14 03:05:51;;;;;;;39.73;17.53;;;;;;;1.85;100.00;102250.75;5003198;28;20698;-76
2022/01/14 03:08:19;;;;;;;41.53;18.60;;;;;;;1.83;100.00;102262.66;5004969;28;20209;-76
2022/01/14 03:10:50;;;;;;;39.90;18.00;;;;;;;1.82;100.00;102251.50;5004938;28;20843;-76
2022/01/14 03:13:17;;;;;;;38.57;17.30;;;;;;;1.82;100.00;102248.91;5004444;28;20220;-74
2022/01/14 03:15:44;;;;;;;41.60;17.93;;;;;;;1.81;100.00;102246.28;5006332;28;20771;-76
2022/01/14 03:18:11;;;;;;;43.07;17.80;;;;;;;1.80;100.00;102250.56;5003790;28;20197;-76
2022/01/14 03:20:48;;;;;;;40.00;17.93;;;;;;;1.81;100.00;102236.91;5005126;28;20212;-76
2022/01/14 03:23:15;;;;;;;39.00;17.17;;;;;;;1.80;100.00;102240.28;5001901;28;20319;-75
2022/01/14 03:25:52;;;;;;;41.53;18.07;;;;;;;1.79;100.00;102242.78;5004132;28;20212;-76
2022/01/14 03:28:22;;;;;;;41.47;17.43;;;;;;;1.77;100.00;102242.72;5002646;28;20258;-76
2022/01/14 03:30:51;;;;;;;41.37;17.60;;;;;;;1.78;100.00;102238.50;5005538;28;20213;-75
2022/01/14 03:33:18;;;;;;;47.90;18.73;;;;;;;1.74;100.00;102231.47;5004238;28;20225;-76
2022/01/14 03:35:45;;;;;;;41.53;18.53;;;;;;;1.74;100.00;102234.03;5005600;28;20570;-76
2022/01/14 03:38:11;;;;;;;38.33;17.50;;;;;;;1.74;100.00;102229.75;5002947;28;20219;-75
2022/01/14 03:40:38;;;;;;;46.30;18.10;;;;;;;1.73;100.00;102222.88;5005126;28;20201;-75
2022/01/14 03:43:04;;;;;;;42.07;17.40;;;;;;;1.73;100.00;102222.88;5001460;28;20235;-74
2022/01/14 03:45:32;;;;;;;48.80;18.80;;;;;;;1.73;100.00;102214.28;5004557;28;20208;-76
2022/01/14 03:47:59;;;;;;;41.13;17.57;;;;;;;1.72;100.00;102215.09;5005536;28;20562;-76
2022/01/14 03:50:27;;;;;;;43.30;18.00;;;;;;;1.69;100.00;102205.59;5002427;28;20590;-76
2022/01/14 03:52:53;;;;;;;45.87;17.90;;;;;;;1.69;100.00;102209.03;4985509;28;20235;-76
2022/01/14 03:55:20;;;;;;;43.77;17.73;;;;;;;1.68;100.00;102201.25;5004303;28;20204;-75
2022/01/14 03:57:46;;;;;;;36.70;16.23;;;;;;;1.67;100.00;102213.25;5005380;28;20213;-75
2022/01/14 04:00:13;;;;;;;43.57;17.67;;;;;;;1.67;100.00;102208.13;5002225;28;20298;-76
2022/01/14 04:02:47;;;;;;;37.87;16.43;;;;;;;1.66;100.00;102198.63;5005093;28;20225;-76
2022/01/14 04:05:15;;;;;;;39.93;16.70;;;;;;;1.68;100.00;102196.13;5001151;28;20220;-76
2022/01/14 04:07:42;;;;;;;37.30;17.00;;;;;;;1.68;100.00;102190.97;5004825;28;20219;-76
2022/01/14 04:10:11;;;;;;;42.27;18.03;;;;;;;1.68;100.00;102191.84;5004105;28;20223;-76
2022/01/14 04:12:46;;;;;;;41.77;17.63;;;;;;;1.68;100.00;102193.56;5005092;28;20697;-74
2022/01/14 04:18:00;;;;;;;41.60;17.27;;;;;;;1.70;100.00;102189.34;5004829;28;20658;-75
2022/01/14 04:20:27;;;;;;;37.60;16.83;;;;;;;1.71;100.00;102185.94;5003918;28;20212;-76
2022/01/14 04:22:53;;;;;;;45.27;17.23;;;;;;;1.71;100.00;102173.09;5002284;28;21484;-76
2022/01/14 04:25:20;;;;;;;43.07;17.43;;;;;;;1.69;100.00;102160.19;4998987;28;20213;-73
2022/01/14 04:27:47;;;;;;;39.30;17.03;;;;;;;1.71;100.00;102152.53;4987741;28;20209;-74
2022/01/14 04:30:14;;;;;;;39.53;17.03;;;;;;;1.73;100.00;102155.16;5002802;28;20204;-76
2022/01/14 04:32:41;;;;;;;39.13;16.73;;;;;;;1.74;100.00;102162.03;5003334;28;20224;-75
2022/01/14 04:35:09;;;;;;;40.57;16.80;;;;;;;1.74;100.00;102155.16;5005760;28;20196;-74
2022/01/14 04:37:36;;;;;;;43.20;17.17;;;;;;;1.75;100.00;102149.22;4998980;28;20213;-74
2022/01/14 04:40:02;;;;;;;42.03;16.97;;;;;;;1.76;100.00;102157.81;5002087;28;20212;-74
2022/01/14 04:42:29;;;;;;;43.43;16.40;;;;;;;1.79;100.00;102150.19;5001047;28;20200;-75
2022/01/14 04:44:56;;;;;;;41.87;17.17;;;;;;;1.79;100.00;102145.94;5003743;28;20227;-74
2022/01/14 04:47:32;;;;;;;41.27;17.77;;;;;;;1.81;100.00;102153.69;5000700;28;20950;-76
2022/01/14 04:49:58;;;;;;;43.47;18.30;;;;;;;1.80;100.00;102142.53;5000050;28;20600;-75
2022/01/14 04:52:27;;;;;;;45.57;17.03;;;;;;;1.83;100.00;102139.19;5004119;28;20235;-75
2022/01/14 04:54:53;;;;;;;41.37;17.07;;;;;;;1.84;100.00;102141.81;5003965;28;20529;-75
2022/01/14 04:57:21;;;;;;;46.37;16.97;;;;;;;1.85;100.00;102132.41;5005500;28;20204;-76
2022/01/14 04:59:48;;;;;;;43.03;17.67;;;;;;;1.85;100.00;102129.84;5002689;28;20287;-76
2022/01/14 05:02:14;;;;;;;42.90;17.10;;;;;;;1.86;100.00;102134.16;5005169;28;20200;-73
2022/01/14 05:04:42;;;;;;;46.00;18.17;;;;;;;1.85;100.00;102135.00;5000086;28;20718;-76
2022/01/14 05:07:13;;;;;;;41.23;16.07;;;;;;;1.87;100.00;102133.34;5004615;28;20200;-76
2022/01/14 05:09:45;;;;;;;40.10;16.20;;;;;;;1.87;100.00;102118.78;5002649;28;20698;-75
2022/01/14 05:12:12;;;;;;;43.07;16.47;;;;;;;1.87;100.00;102111.06;5001202;28;20192;-75
2022/01/14 05:14:38;;;;;;;40.87;17.43;;;;;;;1.87;100.00;102105.06;5001994;28;20204;-75
2022/01/14 05:17:05;;;;;;;39.63;16.63;;;;;;;1.89;100.00;102105.97;5001042;28;20208;-75
2022/01/14 05:19:31;;;;;;;43.97;17.17;;;;;;;1.90;100.00;102102.59;4999630;28;20208;-73
2022/01/14 05:21:58;;;;;;;36.07;15.83;;;;;;;1.90;100.00;102107.72;5003778;28;20200;-75
2022/01/14 05:24:24;;;;;;;45.57;17.00;;;;;;;1.91;100.00;102118.88;5002649;28;20244;-76
2022/01/14 05:26:52;;;;;;;41.03;16.70;;;;;;;1.89;100.00;102113.69;5000565;28;20207;-74
2022/01/14 05:29:18;;;;;;;47.07;17.10;;;;;;;1.89;100.00;102117.13;5001929;28;20203;-76
2022/01/14 05:31:46;;;;;;;41.10;16.97;;;;;;;1.88;100.00;102117.06;4999248;28;20204;-76
2022/01/14 05:34:12;;;;;;;38.73;17.03;;;;;;;1.86;100.00;102106.72;5005414;28;20225;-75
2022/01/14 05:36:39;;;;;;;43.57;16.40;;;;;;;1.85;100.00;102109.28;5000536;28;20205;-75
2022/01/14 05:39:06;;;;;;;44.07;17.63;;;;;;;1.83;100.00;102100.59;5000295;28;20213;-76
2022/01/14 05:41:33;;;;;;;44.37;16.87;;;;;;;1.82;100.00;102104.00;4983586;28;20694;-75
2022/01/14 05:44:02;;;;;;;44.43;17.47;;;;;;;1.79;100.00;102101.34;5003484;28;20272;-75
2022/01/14 05:46:29;;;;;;;45.47;18.13;;;;;;;1.75;100.00;102108.06;5001738;28;20200;-76
2022/01/14 05:48:55;;;;;;;45.80;17.37;;;;;;;1.72;100.00;102100.25;5002709;28;20216;-75
2022/01/14 05:51:22;;;;;;;40.70;17.33;;;;;;;1.70;100.00;102097.63;5001624;28;20205;-76
2022/01/14 05:53:48;;;;;;;48.87;18.77;;;;;;;1.68;100.00;102098.41;5001239;28;20223;-75
2022/01/14 05:56:14;;;;;;;43.03;16.77;;;;;;;1.67;100.00;102094.97;5007236;28;20201;-76
2022/01/14 05:58:41;;;;;;;45.80;18.83;;;;;;;1.66;100.00;102095.78;5005385;28;20216;-76
2022/01/14 06:01:08;;;;;;;45.73;18.97;;;;;;;1.63;100.00;102087.94;5005286;28;20212;-76
2022/01/14 06:03:35;;;;;;;44.57;17.87;;;;;;;1.65;100.00;102086.34;5004038;28;20728;-76
2022/01/14 06:06:01;;;;;;;41.23;17.97;;;;;;;1.66;100.00;102089.78;5005765;28;20216;-76
2022/01/14 06:08:28;;;;;;;43.63;17.90;;;;;;;1.65;100.00;102094.06;5002280;28;20201;-76
2022/01/14 06:10:54;;;;;;;47.83;18.77;;;;;;;1.67;100.00;102094.06;5005167;28;20213;-76
2022/01/14 06:13:20;;;;;;;41.00;17.40;;;;;;;1.68;100.00;102085.56;5003422;28;20721;-76
2022/01/14 06:15:47;;;;;;;47.10;17.77;;;;;;;1.70;100.00;102084.75;5004577;28;20197;-76
2022/01/14 06:18:14;;;;;;;43.77;17.40;;;;;;;1.69;100.00;102088.19;5004919;28;20208;-75
2022/01/14 06:20:41;;;;;;;46.40;17.17;;;;;;;1.72;100.00;102091.66;5005941;28;20201;-74
2022/01/14 06:23:07;;;;;;;42.93;17.93;;;;;;;1.77;100.00;102096.13;5007513;28;20227;-76
2022/01/14 06:25:34;;;;;;;48.97;18.03;;;;;;;1.77;100.00;102109.00;5003856;28;20577;-73
2022/01/14 06:28:00;;;;;;;47.90;17.40;;;;;;;1.78;100.00;102104.75;5005713;28;20201;-75
2022/01/14 06:30:27;;;;;;;43.70;16.83;;;;;;;1.79;100.00;102094.47;5001834;28;20213;-76
2022/01/14 06:32:55;;;;;;;40.80;16.30;;;;;;;1.81;100.00;102107.41;5006477;28;20228;-76
2022/01/14 06:35:24;;;;;;;44.07;17.63;;;;;;;1.85;100.00;102104.13;5002547;28;20228;-76
2022/01/14 06:37:50;;;;;;;46.40;17.43;;;;;;;1.87;100.00;102087.91;5004848;28;20208;-76
2022/01/14 06:40:17;;;;;;;44.20;16.93;;;;;;;1.88;100.00;102081.94;5005363;28;20211;-75
2022/01/14 06:42:44;;;;;;;46.13;16.57;;;;;;;1.91;100.00;102075.16;5004981;28;20239;-76
2022/01/14 06:45:11;;;;;;;44.30;17.23;;;;;;;1.91;100.00;102070.88;5002002;28;20217;-75
2022/01/14 06:47:38;;;;;;;43.67;17.30;;;;;;;1.92;100.00;102074.31;5003719;28;20714;-76
2022/01/14 06:50:05;;;;;;;48.60;18.70;;;;;;;1.93;100.00;102086.38;4996772;28;20209;-74
2022/01/14 06:52:32;;;;;;;44.97;17.03;;;;;;;1.95;100.00;102089.84;5001095;28;20800;-75
2022/01/14 06:54:59;;;;;;;46.50;18.03;;;;;;;1.95;100.00;102080.44;4995606;28;20848;-76
2022/01/14 06:57:26;;;;;;;43.60;17.53;;;;;;;1.95;100.00;102077.00;5003659;28;20197;-76
2022/01/14 06:59:53;;;;;;;38.33;16.50;;;;;;;1.96;100.00;102073.59;5005571;28;20240;-76
2022/01/14 07:02:20;;;;;;;40.03;16.30;;;;;;;1.97;100.00;102070.19;5000460;28;20271;-76
2022/01/14 07:04:46;;;;;;;44.93;18.03;;;;;;;1.95;100.00;102065.00;5004669;28;20213;-76
2022/01/14 07:07:13;;;;;;;45.63;18.83;;;;;;;1.95;100.00;102062.41;5003991;28;20215;-74
2022/01/14 07:09:55;;;;;;;43.73;17.17;;;;;;;1.96;100.00;102059.03;5004361;28;20208;-76
2022/01/14 07:12:23;;;;;;;40.47;15.87;;;;;;;1.96;100.00;102059.03;5001284;28;20208;-74
2022/01/14 07:14:50;;;;;;;43.80;18.07;;;;;;;1.95;100.00;102064.13;5001017;28;20201;-74
2022/01/14 07:17:16;;;;;;;48.53;17.67;;;;;;;1.99;100.00;102071.16;5006302;28;20212;-74
2022/01/14 07:19:43;;;;;;;36.77;16.23;;;;;;;1.98;100.00;102074.53;5004561;28;20197;-76
2022/01/14 07:22:09;;;;;;;42.73;16.20;;;;;;;1.97;100.00;102081.38;5004900;28;20204;-75
2022/01/14 07:24:36;;;;;;;39.10;15.70;;;;;;;1.99;100.00;102084.88;5003396;28;20215;-76
2022/01/14 07:27:04;;;;;;;42.13;16.00;;;;;;;2.01;100.00;102090.06;5004936;28;20197;-75
2022/01/14 07:29:31;;;;;;;43.37;17.30;;;;;;;2.00;100.00;102088.31;5002491;28;20674;-75
2022/01/14 07:31:58;;;;;;;34.80;15.93;;;;;;;2.00;100.00;102102.03;5005870;28;20204;-76
2022/01/14 07:34:24;;;;;;;40.37;16.27;;;;;;;2.00;100.00;102101.16;5005708;28;20224;-76
2022/01/14 07:36:51;;;;;;;36.33;16.37;;;;;;;2.01;100.00;102096.09;5006237;28;20223;-76
2022/01/14 07:39:19;;;;;;;37.63;14.67;;;;;;;2.03;100.00;102103.84;5001815;28;20196;-76
2022/01/14 07:41:46;;;;;;;39.63;15.70;;;;;;;2.04;100.00;102101.34;5003814;28;20227;-75
2022/01/14 07:44:14;;;;;;;41.40;16.17;;;;;;;2.05;100.00;102102.19;4999812;28;20840;-75
2022/01/14 07:46:40;;;;;;;37.03;15.43;;;;;;;2.04;100.00;102101.34;5003339;28;20224;-76
2022/01/14 07:49:07;;;;;;;39.00;15.50;;;;;;;2.04;100.00;102101.34;5003807;28;20232;-74
2022/01/14 07:51:33;;;;;;;41.07;16.70;;;;;;;2.04;100.00;102109.06;4999501;28;20200;-76
2022/01/14 07:54:04;;;;;;;35.77;15.60;;;;;;;2.06;100.00;102115.13;5005911;28;20235;-75
2022/01/14 07:56:32;;;;;;;37.13;15.53;;;;;;;2.06;100.00;102138.28;5001269;28;20224;-76
2022/01/14 07:58:58;;;;;;;42.90;17.27;;;;;;;2.05;100.00;102133.06;5005480;28;20702;-76
2022/01/14 08:01:26;;;;;;;38.83;15.50;;;;;;;2.05;100.00;102151.09;5002910;28;20236;-75
2022/01/14 08:03:53;;;;;;;44.00;16.30;;;;;;;2.05;100.00;102161.38;5004835;28;20224;-74
2022/01/14 08:06:22;;;;;;;38.27;16.17;;;;;;;2.06;100.00;102166.56;5001938;28;20228;-75
2022/01/14 08:08:48;;;;;;;43.10;17.70;;;;;;;2.04;100.00;102172.47;5002142;28;20201;-76
2022/01/14 08:11:15;;;;;;;39.47;16.37;;;;;;;2.04;100.00;102169.91;5001811;28;20207;-75
2022/01/14 08:13:41;;;;;;;42.77;17.37;;;;;;;2.02;100.00;102158.69;5001115;28;20224;-75
2022/01/14 08:16:07;;;;;;;45.97;16.87;;;;;;;2.03;100.00;102165.59;5002759;28;20204;-76
2022/01/14 08:18:36;;;;;;;46.57;18.80;;;;;;;2.01;100.00;102162.97;5000744;28;20200;-74
2022/01/14 08:21:03;;;;;;;47.90;17.30;;;;;;;1.99;100.00;102148.31;5003760;28;20200;-76
2022/01/14 08:23:29;;;;;;;49.73;18.87;;;;;;;1.98;100.00;102137.13;5001919;28;20227;-73
2022/01/14 08:25:57;;;;;;;52.07;18.87;;;;;;;1.97;100.00;102134.50;5003518;28;20209;-75
2022/01/14 08:28:24;;;;;;;44.30;17.93;;;;;;;1.98;100.00;102120.84;5002418;28;20209;-74
2022/01/14 08:30:50;;;;;;;46.37;18.73;;;;;;;1.96;100.00;102117.34;5003363;28;20205;-75
2022/01/14 08:33:17;;;;;;;46.40;18.50;;;;;;;1.94;100.00;102112.16;5001304;28;20765;-75
2022/01/14 08:35:46;;;;;;;47.90;19.40;;;;;;;1.95;100.00;102108.72;5003705;28;20207;-74
2022/01/14 08:38:13;;;;;;;44.23;18.90;;;;;;;1.97;100.00;102106.22;5004811;28;20208;-75
2022/01/14 08:40:40;;;;;;;50.43;18.67;;;;;;;1.95;100.00;102102.72;5000407;28;20209;-76
2022/01/14 08:43:07;;;;;;;47.30;19.03;;;;;;;1.96;100.00;102094.19;5003615;28;20713;-76
2022/01/14 08:45:34;;;;;;;39.77;18.30;;;;;;;1.96;100.00;102110.50;5001475;28;20227;-76
2022/01/14 08:48:01;;;;;;;52.83;20.03;;;;;;;1.95;100.00;102095.88;5001121;28;20573;-76
2022/01/14 08:50:29;;;;;;;48.70;19.97;;;;;;;1.98;100.00;102092.53;4999041;28;20824;-75
2022/01/14 08:52:59;;;;;;;50.27;19.87;;;;;;;1.99;100.00;102090.00;5000558;28;20228;-76
2022/01/14 08:55:26;;;;;;;48.13;19.63;;;;;;;1.98;100.00;102083.09;5002097;28;20291;-74
2022/01/14 08:57:52;;;;;;;46.33;18.37;;;;;;;1.99;100.00;102087.44;5000669;28;20231;-75
2022/01/14 09:00:21;;;;;;;45.63;18.57;;;;;;;2.01;100.00;102088.38;5002209;28;20307;-75
2022/01/14 09:02:48;;;;;;;47.20;19.00;;;;;;;2.01;100.00;102078.06;5003290;28;20229;-74
2022/01/14 09:05:14;;;;;;;50.67;18.60;;;;;;;2.03;100.00;102075.56;5002199;28;20212;-76
2022/01/14 09:07:41;;;;;;;44.63;18.83;;;;;;;2.06;100.00;102081.66;5002000;28;20211;-76
2022/01/14 09:10:10;;;;;;;49.13;18.83;;;;;;;2.07;100.00;102080.81;4985185;28;20590;-74
2022/01/14 09:12:37;;;;;;;45.87;18.40;;;;;;;2.09;100.00;102065.44;5003071;28;20220;-75
2022/01/14 09:15:05;;;;;;;43.63;18.23;;;;;;;2.08;100.00;102068.84;5001832;28;20751;-76
2022/01/14 09:17:31;;;;;;;46.27;17.73;;;;;;;2.10;100.00;102062.06;5001434;28;20192;-74
2022/01/14 09:19:58;;;;;;;46.30;18.83;;;;;;;2.14;100.00;102078.47;5001669;28;20208;-74
2022/01/14 09:22:27;;;;;;;40.27;17.87;;;;;;;2.14;100.00;102084.47;5001627;28;20208;-76
2022/01/14 09:24:57;;;;;;;46.20;20.33;;;;;;;2.16;100.00;102095.69;5004024;28;20196;-76
2022/01/14 09:27:24;;;;;;;53.50;21.30;;;;;;;2.19;100.00;102087.22;4997755;28;20678;-75
2022/01/14 09:29:51;;;;;;;48.43;20.03;;;;;;;2.20;100.00;102094.09;5005078;28;20200;-76
2022/01/14 09:32:17;;;;;;;41.77;17.90;;;;;;;2.21;100.00;102086.41;5004940;28;20208;-75
2022/01/14 09:34:44;;;;;;;40.10;17.53;;;;;;;2.23;100.00;102089.03;5006144;28;20204;-75
2022/01/14 09:37:10;;;;;;;44.70;17.83;;;;;;;2.25;100.00;102096.00;5004179;28;20208;-76
2022/01/14 09:39:39;;;;;;;40.70;18.20;;;;;;;2.29;100.00;102104.69;5006401;28;20220;-74
2022/01/14 09:42:07;;;;;;;45.53;18.23;;;;;;;2.30;100.00;102098.69;4992418;28;20725;-75
2022/01/14 09:44:35;;;;;;;46.10;19.13;;;;;;;2.30;100.00;102098.69;5004239;28;20224;-75
2022/01/14 09:47:02;;;;;;;44.47;16.87;;;;;;;2.31;100.00;102102.16;5006282;28;20220;-76
2022/01/14 09:49:29;;;;;;;41.23;16.73;;;;;;;2.33;100.00;102098.81;5001021;28;20215;-74
2022/01/14 09:51:56;;;;;;;36.23;16.40;;;;;;;2.32;100.00;102117.63;5005461;28;20693;-76
2022/01/14 09:54:22;;;;;;;40.60;16.53;;;;;;;2.34;100.00;102095.41;5003167;28;20239;-75
2022/01/14 09:56:49;;;;;;;44.50;19.07;;;;;;;2.37;100.00;102092.03;5004945;28;20193;-76
2022/01/14 09:59:16;;;;;;;35.67;16.83;;;;;;;2.37;100.00;102085.19;5002269;28;20205;-74
2022/01/14 10:01:46;;;;;;;39.93;15.50;;;;;;;2.39;100.00;102077.53;5005653;28;20570;-76
2022/01/14 10:04:15;;;;;;;40.57;16.97;;;;;;;2.37;100.00;102072.31;5002640;28;20224;-76
2022/01/14 10:06:43;;;;;;;37.10;16.27;;;;;;;2.37;100.00;102064.59;5003741;28;20589;-75
2022/01/14 10:09:12;;;;;;;40.93;15.10;;;;;;;2.39;100.00;102067.22;5004445;28;20208;-76
2022/01/14 10:11:42;;;;;;;37.77;16.03;;;;;;;2.44;100.00;102065.66;5003873;28;20574;-76
2022/01/14 10:14:10;;;;;;;39.73;15.27;;;;;;;2.43;100.00;102058.78;5005506;28;20306;-76
2022/01/14 10:16:40;;;;;;;37.70;15.20;;;;;;;2.46;100.00;102051.13;5002100;28;20989;-75
2022/01/14 10:19:19;;;;;;;38.83;16.40;;;;;;;2.46;100.00;102058.84;5002521;28;20216;-76
2022/01/14 10:21:46;;;;;;;36.23;16.00;;;;;;;2.50;100.00;102059.81;5005787;28;20262;-76
2022/01/14 10:24:14;;;;;;;39.47;16.63;;;;;;;2.51;100.00;102059.88;5006243;28;20229;-76
2022/01/14 10:26:49;;;;;;;37.53;15.73;;;;;;;2.51;100.00;102062.44;5003417;28;20271;-76
2022/01/14 10:29:15;;;;;;;37.07;16.37;;;;;;;2.55;100.00;102065.97;5006640;28;20196;-76
2022/01/14 10:31:43;;;;;;;40.47;17.33;;;;;;;2.57;100.00;102056.59;4985596;28;21141;-76
2022/01/14 10:34:11;;;;;;;43.47;16.13;;;;;;;2.58;100.00;102064.38;5004171;28;20231;-75
2022/01/14 10:36:39;;;;;;;35.53;16.10;;;;;;;2.60;100.00;102055.00;5003286;28;20567;-76
2022/01/14 10:39:20;;;;;;;36.03;16.43;;;;;;;2.62;100.00;102043.06;5004648;28;20201;-76
2022/01/14 10:41:46;;;;;;;39.90;16.23;;;;;;;2.65;100.00;102039.69;5004581;28;20231;-76
2022/01/14 10:44:28;;;;;;;36.87;15.90;;;;;;;2.69;100.00;102044.09;5004535;28;20235;-76
2022/01/14 10:47:12;;;;;;;38.60;16.33;;;;;;;2.69;100.00;102046.69;5006154;28;20220;-75
2022/01/14 10:49:39;;;;;;;36.33;15.50;;;;;;;2.73;100.00;102045.06;5002254;28;20201;-76
2022/01/14 10:52:18;;;;;;;38.33;16.10;;;;;;;2.76;100.00;102039.97;5000348;28;20630;-75
2022/01/14 10:54:47;;;;;;;33.80;16.53;;;;;;;2.78;100.00;102046.03;4985224;28;20205;-75
2022/01/14 10:57:16;;;;;;;38.47;16.50;;;;;;;2.80;100.00;102049.56;5005125;28;20216;-75
2022/01/14 10:59:43;;;;;;;38.87;16.73;;;;;;;2.83;100.00;102047.06;5004792;28;20798;-76
2022/01/14 11:02:35;;;;;;;38.07;16.73;;;;;;;2.84;100.00;102041.94;5007007;28;20791;-75
2022/01/14 11:05:05;;;;;;;39.20;17.13;;;;;;;2.86;100.00;102057.44;5004613;28;20699;-76
2022/01/14 11:07:32;;;;;;;38.07;17.60;;;;;;;2.89;100.00;102054.97;5002709;28;20224;-74
2022/01/14 11:09:59;;;;;;;42.30;17.60;;;;;;;2.91;100.00;102044.72;5002665;28;20208;-75
2022/01/14 11:12:29;;;;;;;37.77;16.57;;;;;;;2.94;100.00;102044.81;5004677;28;20662;-74
2022/01/14 11:14:56;;;;;;;37.37;16.50;;;;;;;2.97;100.00;102050.03;5001944;28;20204;-75
2022/01/14 11:17:22;;;;;;;34.63;16.00;;;;;;;2.97;100.00;102040.59;5005762;28;20206;-74
2022/01/14 11:19:48;;;;;;;37.57;15.87;;;;;;;2.99;100.00;102027.75;4988138;28;20205;-76
2022/01/14 11:25:00;;;;;;;37.03;15.87;;;;;;;3.03;100.00;102014.13;5003179;28;20209;-76
2022/01/14 11:27:28;;;;;;;40.00;16.30;;;;;;;3.05;100.00;102006.44;5002565;28;20212;-76